Airfield :
LOGIN :

Register | Disclaimer

   EN    FR    IT 

 










Legend :    VFR   Marginal VFR   IFR   Intensive IFR   Very Intensive IFR
Visi :
Ceiling :
>= 8 km
>= 3000ft
5 to 8 km
1000 to 3000 ft
1500m to 5 km
500 to 1000 ft
800 to 1500m
200 to 500 ft
< 800m
< 200 ft
Symbols :   Thunderstorms  Fog  Heavy snow  Heavy precipitations  Wind > 20 kt
SIGMETs :     Misc.  Thunderstorms  Icing  Turbulence  Mountain Waves  Volcanic Ashes







- Airport Elevation : 1455 ft


ETIH - Hohenfels Army Air Field

CURRENT METAR :
  • 200903Z AUTO 24003KT 2800 -SN BR SCT010 OVC013 01/01 A2982 RMK AO2 VIS 2800V6000 SLP121 $

EXPIRED METARs :
  • 200845Z AUTO 24006KT 5000 -SN BR SCT010 OVC017 01/01 A2983 RMK AO2 SLP127 $
  • 200813Z AUTO 22003KT 5000 -SN BR FEW008 OVC016 00/00 A2983 RMK AO2 SLP129 $
  • 200811Z AUTO 24003KT 3600 -SN BR FEW008 OVC016 00/00 A2983 RMK AO2 VIS 2600V5000 SLP129 $
  • 200757Z AUTO 00000KT 6000 -SN BR SCT009 OVC016 00/00 A2983 RMK AO2 CIG 012V016 SLP129 $
  • 200747Z AUTO 00000KT 3200 -SN BR FEW007 OVC012 00/00 A2983 RMK AO2 SLP129 $
  • 200731Z AUTO 23005KT 1800 -SN BR VV012 00/00 A2983 RMK AO2 SLP129 $
  • 200719Z AUTO 22005KT 1600 -SN BR FEW006 OVC012 00/00 A2983 RMK AO2 SLP129 RVRNO $
  • 200708Z AUTO 24003KT 1400 -SN BR FEW008 OVC014 00/00 A2983 RMK AO2 SLP129 RVRNO $
  • 200658Z AUTO 23005KT 2400 -SN BR FEW008 OVC014 00/00 A2983 RMK AO2 VIS 2400V4400 SLP129 $
  • 200642Z AUTO 21006KT 4400 -SN BR SCT008 OVC015 00/00 A2982 RMK AO2 VIS 4400V6000 CIG 010V015 SLP125 $
  • 200634Z AUTO 21004KT 6000 -SN BR SCT008 OVC015 00/00 A2982 RMK AO2 CIG 010V015 SLP125 $
  • 200632Z AUTO 22004KT 8000 -SN BR BKN010 OVC015 00/00 A2982 RMK AO2 CIG 010V015 SLP125 $
  • 200618Z AUTO 20003KT 5000 -SN BR FEW007 OVC011 00/00 A2982 RMK AO2 SLP125 $

Expired Forecast.
No reported NOTAMs for that airfield.



MET'MAP, your aeronautical weather chart ! - Copyright ORBIFLY December 2007 - Disclaimer

ORBIFLY MET'MAP TEAM :

Programming & Development : Alexandra Zaïnal
Concept & Development : Baudouin d'Aumeries
Co-Development & Prog : Marc-Olivier Méhu
Technical & hardware support : Manuel Goepfert

Contact : metmap@orbifly.com




SOURCES & CREDITS :

   NOAA